createdAt,value
2018-06-07T00:00:06.906Z,16.37
2018-06-07T00:01:06.906Z,16.34
2018-06-07T00:02:06.911Z,16.27
2018-06-07T00:03:06.915Z,16.33
2018-06-07T00:04:06.915Z,16.26
2018-06-07T00:05:06.926Z,16.12
2018-06-07T00:06:06.926Z,16.15
2018-06-07T00:07:06.925Z,15.97
2018-06-07T00:08:06.927Z,15.97
2018-06-07T00:09:06.934Z,15.99
2018-06-07T00:10:06.932Z,15.99
2018-06-07T00:11:06.938Z,15.99
2018-06-07T00:12:06.938Z,15.99
2018-06-07T00:13:06.954Z,15.96
2018-06-07T00:14:06.945Z,15.85
2018-06-07T00:15:06.948Z,15.88
2018-06-07T00:16:06.948Z,15.86
2018-06-07T00:17:06.954Z,15.86
2018-06-07T00:18:06.955Z,15.93
2018-06-07T00:19:06.957Z,15.89
2018-06-07T00:20:06.960Z,15.89
2018-06-07T00:21:06.964Z,15.93
2018-06-07T00:22:06.979Z,15.96
2018-06-07T00:23:06.980Z,15.86
2018-06-07T00:24:06.988Z,15.86
2018-06-07T00:25:06.978Z,15.74
2018-06-07T00:26:06.977Z,15.72
2018-06-07T00:27:06.988Z,15.82
2018-06-07T00:28:06.991Z,15.78
2018-06-07T00:29:06.984Z,15.66
2018-06-07T00:30:06.985Z,15.74
2018-06-07T00:31:06.992Z,15.75
2018-06-07T00:32:06.991Z,15.76
2018-06-07T00:33:06.992Z,15.74
2018-06-07T00:34:06.999Z,15.81
2018-06-07T00:35:06.999Z,15.79
2018-06-07T00:36:07.002Z,15.68
2018-06-07T00:37:07.002Z,15.76
2018-06-07T00:38:07.028Z,15.82
2018-06-07T00:39:07.011Z,15.76
2018-06-07T00:40:07.013Z,15.76
2018-06-07T00:41:07.014Z,15.74
2018-06-07T00:42:07.020Z,15.68
2018-06-07T00:43:07.019Z,15.68
2018-06-07T00:44:07.021Z,15.70
2018-06-07T00:45:07.035Z,15.70
2018-06-07T00:46:07.062Z,15.82
2018-06-07T00:47:07.029Z,15.76
2018-06-07T00:48:07.031Z,15.67
2018-06-07T00:49:07.035Z,15.82
2018-06-07T00:50:07.041Z,15.78
2018-06-07T00:51:07.039Z,15.76
2018-06-07T00:52:07.046Z,15.74
2018-06-07T00:53:07.045Z,15.72
2018-06-07T00:54:07.044Z,15.75
2018-06-07T00:55:07.050Z,15.79
2018-06-07T00:56:07.058Z,15.76
2018-06-07T00:57:07.052Z,15.74
2018-06-07T00:58:07.062Z,15.78
2018-06-07T00:59:07.060Z,15.82
2018-06-07T01:00:07.063Z,15.79
2018-06-07T01:01:07.063Z,15.72
2018-06-07T01:02:07.066Z,15.66
2018-06-07T01:03:07.066Z,15.56
2018-06-07T01:04:07.091Z,15.54
2018-06-07T01:05:07.073Z,15.57
2018-06-07T01:06:07.075Z,15.59
2018-06-07T01:07:07.080Z,15.56
2018-06-07T01:08:07.082Z,15.52
2018-06-07T01:09:07.086Z,15.54
2018-06-07T01:10:07.085Z,15.54
2018-06-07T01:11:07.091Z,15.66
2018-06-07T01:12:07.092Z,15.56
2018-06-07T01:13:07.091Z,15.63
2018-06-07T01:14:07.094Z,15.60
2018-06-07T01:15:07.096Z,15.61
2018-06-07T01:16:07.100Z,15.59
2018-06-07T01:17:07.115Z,15.57
2018-06-07T01:18:07.106Z,15.51
2018-06-07T01:19:07.109Z,15.52
2018-06-07T01:20:07.109Z,15.42
2018-06-07T01:21:07.110Z,15.35
2018-06-07T01:22:07.115Z,15.36
2018-06-07T01:23:07.117Z,15.42
2018-06-07T01:24:07.116Z,15.43
2018-06-07T01:25:07.119Z,15.39
2018-06-07T01:26:07.123Z,15.43
2018-06-07T01:27:07.125Z,15.42
2018-06-07T01:28:07.126Z,15.42
2018-06-07T01:29:07.134Z,15.48
2018-06-07T01:30:07.132Z,15.49
2018-06-07T01:31:07.133Z,15.46
2018-06-07T01:32:07.134Z,15.54
2018-06-07T01:33:07.142Z,15.54
2018-06-07T01:34:07.144Z,15.49
2018-06-07T01:35:07.144Z,15.56
2018-06-07T01:36:07.144Z,15.51
2018-06-07T01:37:07.146Z,15.51
2018-06-07T01:38:07.149Z,15.45
2018-06-07T01:39:07.152Z,15.41
2018-06-07T01:40:07.151Z,15.39
2018-06-07T01:41:07.162Z,15.39
2018-06-07T01:42:07.157Z,15.28
2018-06-07T01:43:07.161Z,15.23
2018-06-07T01:44:07.162Z,15.23
2018-06-07T01:45:07.164Z,15.20
2018-06-07T01:46:07.167Z,15.03
2018-06-07T01:47:07.183Z,15.03
2018-06-07T01:48:07.176Z,14.99
2018-06-07T01:49:07.184Z,15.09
2018-06-07T01:50:07.175Z,15.02
2018-06-07T01:51:07.177Z,15.11
2018-06-07T01:52:07.180Z,15.06
2018-06-07T01:53:07.181Z,15.02
2018-06-07T01:54:07.184Z,15.08
2018-06-07T01:55:07.188Z,14.99
2018-06-07T01:56:07.188Z,15.09
2018-06-07T01:57:07.191Z,15.05
2018-06-07T01:58:07.190Z,15.03
2018-06-07T01:59:07.224Z,15.11
2018-06-07T02:00:07.198Z,15.02
2018-06-07T02:01:07.200Z,15.08
2018-06-07T02:02:07.203Z,15.02
2018-06-07T02:03:07.211Z,14.99
2018-06-07T02:04:07.203Z,15.05
2018-06-07T02:05:07.207Z,15.08
2018-06-07T02:06:07.207Z,15.09
2018-06-07T02:07:07.210Z,15.03
2018-06-07T02:08:07.210Z,15.01
2018-06-07T02:09:07.224Z,15.09
2018-06-07T02:10:07.216Z,15.01
2018-06-07T02:11:07.217Z,14.99
2018-06-07T02:12:07.219Z,14.94
2018-06-07T02:13:07.242Z,14.88
2018-06-07T02:14:07.225Z,14.95
2018-06-07T02:15:07.225Z,14.90
2018-06-07T02:16:07.227Z,14.86
2018-06-07T02:17:07.228Z,14.90
2018-06-07T02:18:07.232Z,14.95
2018-06-07T02:19:07.244Z,14.93
2018-06-07T02:20:07.237Z,14.95
2018-06-07T02:21:07.236Z,14.90
2018-06-07T02:22:07.266Z,14.90
2018-06-07T02:23:07.253Z,14.75
2018-06-07T02:24:07.242Z,14.80
2018-06-07T02:25:07.262Z,14.90
2018-06-07T02:26:07.250Z,14.80
2018-06-07T02:27:07.246Z,14.94
2018-06-07T02:28:07.246Z,14.75
2018-06-07T02:29:07.251Z,14.87
2018-06-07T02:30:07.253Z,14.83
2018-06-07T02:31:07.254Z,14.78
2018-06-07T02:32:07.258Z,14.75
2018-06-07T02:33:07.260Z,14.68
2018-06-07T02:34:07.264Z,14.61
2018-06-07T02:35:07.263Z,14.65
2018-06-07T02:36:07.262Z,14.67
2018-06-07T02:37:07.264Z,14.62
2018-06-07T02:38:07.329Z,14.62
2018-06-07T02:39:07.271Z,14.60
2018-06-07T02:40:07.273Z,14.62
2018-06-07T02:41:07.271Z,14.64
2018-06-07T02:42:07.274Z,14.60
2018-06-07T02:43:07.279Z,14.65
2018-06-07T02:44:07.279Z,14.67
2018-06-07T02:45:07.289Z,14.65
2018-06-07T02:46:07.281Z,14.56
2018-06-07T02:47:07.291Z,14.53
2018-06-07T02:48:07.285Z,14.57
2018-06-07T02:49:07.286Z,14.53
2018-06-07T02:50:07.299Z,14.54
2018-06-07T02:51:07.290Z,14.53
2018-06-07T02:52:07.292Z,14.57
2018-06-07T02:53:07.290Z,14.60
2018-06-07T02:54:07.294Z,14.57
2018-06-07T02:55:07.300Z,14.60
2018-06-07T02:56:07.299Z,14.57
2018-06-07T02:57:07.305Z,14.56
2018-06-07T02:58:07.301Z,14.56
2018-06-07T02:59:07.303Z,14.50
2018-06-07T03:00:07.307Z,14.61
2018-06-07T03:01:07.306Z,14.57
2018-06-07T03:02:07.308Z,14.60
2018-06-07T03:03:07.334Z,14.64
2018-06-07T03:04:07.314Z,14.64
2018-06-07T03:05:07.313Z,14.64
2018-06-07T03:06:07.315Z,14.61
2018-06-07T03:07:07.318Z,14.69
2018-06-07T03:08:07.317Z,14.62
2018-06-07T03:09:07.319Z,14.69
2018-06-07T03:10:07.334Z,14.67
2018-06-07T03:11:07.324Z,14.61
2018-06-07T03:12:07.324Z,14.67
2018-06-07T03:13:07.334Z,14.61
2018-06-07T03:14:07.327Z,14.57
2018-06-07T03:15:07.336Z,14.62
2018-06-07T03:16:07.328Z,14.64
2018-06-07T03:17:07.334Z,14.64
2018-06-07T03:18:07.345Z,14.65
2018-06-07T03:19:07.336Z,14.60
2018-06-07T03:20:07.353Z,14.65
2018-06-07T03:21:07.340Z,14.62
2018-06-07T03:22:07.339Z,14.71
2018-06-07T03:23:07.342Z,14.61
2018-06-07T03:24:07.343Z,14.75
2018-06-07T03:25:07.359Z,14.68
2018-06-07T03:26:07.348Z,14.65
2018-06-07T03:27:07.371Z,14.69
2018-06-07T03:28:07.350Z,14.65
2018-06-07T03:29:07.380Z,14.64
2018-06-07T03:30:07.375Z,14.67
2018-06-07T03:31:07.354Z,14.60
2018-06-07T03:32:07.356Z,14.60
2018-06-07T03:33:07.360Z,14.54
2018-06-07T03:34:07.361Z,14.57
2018-06-07T03:35:07.377Z,14.56
2018-06-07T03:36:07.387Z,14.61
2018-06-07T03:37:07.370Z,14.50
2018-06-07T03:38:07.399Z,14.60
2018-06-07T03:39:07.387Z,14.65
2018-06-07T03:40:07.368Z,14.64
2018-06-07T03:41:07.372Z,14.64
2018-06-07T03:42:07.374Z,14.65
2018-06-07T03:43:07.374Z,14.68
2018-06-07T03:44:07.375Z,14.62
2018-06-07T03:45:07.380Z,14.61
2018-06-07T03:46:07.378Z,14.60
2018-06-07T03:47:07.380Z,14.61
2018-06-07T03:48:07.385Z,14.57
2018-06-07T03:49:07.386Z,14.61
2018-06-07T03:50:07.388Z,14.61
2018-06-07T03:51:07.391Z,14.64
2018-06-07T03:52:07.391Z,14.65
2018-06-07T03:53:07.396Z,14.57
2018-06-07T03:54:07.392Z,14.67
2018-06-07T03:55:07.394Z,14.69
2018-06-07T03:56:07.393Z,14.67
2018-06-07T03:57:07.409Z,14.74
2018-06-07T03:58:07.405Z,14.67
2018-06-07T03:59:07.405Z,14.74
2018-06-07T04:00:07.402Z,14.68
2018-06-07T04:01:07.452Z,14.78
2018-06-07T04:02:07.408Z,14.74
2018-06-07T04:03:07.408Z,14.75
2018-06-07T04:04:07.410Z,14.72
2018-06-07T04:05:07.415Z,14.74
2018-06-07T04:06:07.450Z,14.83
2018-06-07T04:07:07.434Z,14.86
2018-06-07T04:08:07.421Z,14.83
2018-06-07T04:09:07.418Z,14.86
2018-06-07T04:10:07.433Z,14.98
2018-06-07T04:11:07.427Z,14.83
2018-06-07T04:12:07.423Z,14.94
2018-06-07T04:13:07.424Z,14.88
2018-06-07T04:14:07.427Z,14.88
2018-06-07T04:15:07.430Z,15.02
2018-06-07T04:16:07.435Z,14.91
2018-06-07T04:17:07.431Z,15.02
2018-06-07T04:18:07.434Z,15.05
2018-06-07T04:19:07.437Z,15.02
2018-06-07T04:20:07.438Z,15.09
2018-06-07T04:21:07.437Z,15.08
2018-06-07T04:22:07.442Z,14.99
2018-06-07T04:23:07.442Z,15.06
2018-06-07T04:24:07.448Z,15.09
2018-06-07T04:25:07.446Z,15.11
2018-06-07T04:26:07.483Z,15.17
2018-06-07T04:27:07.455Z,15.24
2018-06-07T04:28:07.452Z,15.21
2018-06-07T04:29:07.456Z,15.28
2018-06-07T04:30:07.460Z,15.35
2018-06-07T04:31:07.458Z,15.39
2018-06-07T04:32:07.467Z,15.35
2018-06-07T04:33:07.462Z,15.39
2018-06-07T04:34:07.465Z,15.38
2018-06-07T04:35:07.509Z,15.48
2018-06-07T04:36:07.476Z,15.54
2018-06-07T04:37:07.468Z,15.59
2018-06-07T04:38:07.478Z,15.56
2018-06-07T04:39:07.479Z,15.54
2018-06-07T04:40:07.478Z,15.68
2018-06-07T04:41:07.479Z,15.68
2018-06-07T04:42:07.479Z,15.81
2018-06-07T04:43:07.482Z,15.72
2018-06-07T04:44:07.483Z,15.70
2018-06-07T04:45:07.503Z,15.67
2018-06-07T04:46:07.488Z,15.84
2018-06-07T04:47:07.496Z,15.92
2018-06-07T04:48:07.497Z,15.86
2018-06-07T04:49:07.496Z,15.97
2018-06-07T04:50:07.514Z,15.92
2018-06-07T04:51:07.499Z,15.99
2018-06-07T04:52:07.507Z,15.99
2018-06-07T04:53:07.636Z,15.96
2018-06-07T04:54:07.537Z,16.00
2018-06-07T04:55:07.509Z,15.96
2018-06-07T04:56:07.511Z,15.99
2018-06-07T04:57:07.530Z,16.11
2018-06-07T04:58:07.518Z,16.12
2018-06-07T04:59:07.520Z,16.15
2018-06-07T05:00:07.522Z,16.25
2018-06-07T05:01:07.542Z,16.26
2018-06-07T05:02:07.527Z,16.38
2018-06-07T05:03:07.540Z,16.34
2018-06-07T05:04:07.530Z,16.38
2018-06-07T05:05:07.532Z,16.45
2018-06-07T05:06:07.537Z,16.48
2018-06-07T05:07:07.539Z,16.50
2018-06-07T05:08:07.542Z,16.56
2018-06-07T05:09:07.544Z,16.68
2018-06-07T05:10:07.558Z,16.71
2018-06-07T05:11:07.557Z,16.62
2018-06-07T05:12:07.550Z,16.71
2018-06-07T05:13:07.553Z,16.81
2018-06-07T05:14:07.555Z,16.95
2018-06-07T05:15:07.558Z,16.95
2018-06-07T05:16:07.566Z,17.10
2018-06-07T05:17:07.563Z,17.13
2018-06-07T05:18:07.568Z,17.13
2018-06-07T05:19:07.571Z,17.23
2018-06-07T05:20:07.574Z,17.32
2018-06-07T05:21:07.574Z,17.22
2018-06-07T05:22:07.611Z,17.41
2018-06-07T05:23:07.582Z,17.46
2018-06-07T05:24:07.588Z,17.48
2018-06-07T05:25:07.589Z,17.53
2018-06-07T05:26:07.592Z,17.51
2018-06-07T05:27:07.595Z,17.62
2018-06-07T05:28:07.599Z,17.62
2018-06-07T05:29:07.604Z,17.62
2018-06-07T05:30:07.605Z,17.66
2018-06-07T05:31:07.610Z,17.79
2018-06-07T05:32:07.668Z,17.85
2018-06-07T05:33:07.614Z,17.88
2018-06-07T05:34:07.618Z,17.91
2018-06-07T05:35:07.621Z,17.94
2018-06-07T05:36:07.630Z,18.02
2018-06-07T05:37:07.626Z,18.04
2018-06-07T05:38:07.648Z,18.19
2018-06-07T05:39:07.637Z,18.17
2018-06-07T05:40:07.640Z,18.27
2018-06-07T05:41:07.644Z,18.28
2018-06-07T05:42:07.675Z,18.29
2018-06-07T05:43:07.652Z,18.29
2018-06-07T05:44:07.654Z,18.37
2018-06-07T05:45:07.668Z,18.46
2018-06-07T05:46:07.661Z,18.42
2018-06-07T05:47:07.666Z,18.44
2018-06-07T05:48:07.668Z,18.44
2018-06-07T05:49:07.674Z,18.49
2018-06-07T05:50:07.678Z,18.42
2018-06-07T05:51:07.683Z,18.43
2018-06-07T05:52:07.689Z,18.36
2018-06-07T05:53:07.692Z,18.42
2018-06-07T05:54:07.695Z,18.31
2018-06-07T05:55:07.696Z,18.27
2018-06-07T05:56:07.730Z,18.29
2018-06-07T05:57:07.712Z,18.36
2018-06-07T05:58:07.712Z,18.43
2018-06-07T05:59:07.718Z,18.40
2018-06-07T06:00:07.717Z,18.54
2018-06-07T06:01:07.770Z,18.58
2018-06-07T06:02:07.732Z,18.59
2018-06-07T06:03:07.798Z,18.67
2018-06-07T06:04:07.734Z,18.79
2018-06-07T06:05:07.738Z,18.92
2018-06-07T06:06:07.742Z,18.90
2018-06-07T06:07:07.748Z,18.97
2018-06-07T06:08:07.751Z,18.98
2018-06-07T06:09:07.766Z,18.90
2018-06-07T06:10:07.760Z,18.79
2018-06-07T06:11:07.761Z,18.82
2018-06-07T06:12:07.826Z,18.92
2018-06-07T06:13:07.771Z,18.90
2018-06-07T06:14:07.773Z,18.87
2018-06-07T06:15:07.779Z,18.90
2018-06-07T06:16:07.784Z,18.92
2018-06-07T06:17:07.790Z,18.86
2018-06-07T06:18:07.794Z,18.76
2018-06-07T06:19:07.796Z,18.79
2018-06-07T06:20:07.797Z,18.80
2018-06-07T06:21:07.804Z,18.79
2018-06-07T06:22:07.809Z,18.80
2018-06-07T06:23:07.812Z,18.68
2018-06-07T06:24:07.817Z,18.57
2018-06-07T06:25:07.818Z,18.37
2018-06-07T06:26:07.826Z,18.36
2018-06-07T06:27:07.846Z,18.31
2018-06-07T06:28:07.835Z,18.34
2018-06-07T06:29:07.841Z,18.39
2018-06-07T06:30:07.843Z,18.46
2018-06-07T06:31:07.848Z,18.43
2018-06-07T06:32:07.852Z,18.43
2018-06-07T06:33:07.855Z,18.44
2018-06-07T06:34:07.859Z,18.49
2018-06-07T06:35:07.861Z,18.36
2018-06-07T06:36:07.869Z,18.40
2018-06-07T06:37:07.870Z,18.43
2018-06-07T06:38:07.875Z,18.34
2018-06-07T06:39:07.907Z,18.37
2018-06-07T06:40:07.882Z,18.54
2018-06-07T06:41:07.885Z,18.50
2018-06-07T06:42:07.891Z,18.50
2018-06-07T06:43:07.899Z,18.46
2018-06-07T06:44:07.898Z,18.64
2018-06-07T06:45:07.903Z,18.58
2018-06-07T06:46:07.915Z,18.59
2018-06-07T06:47:07.912Z,18.68
2018-06-07T06:48:07.915Z,18.76
2018-06-07T06:49:07.932Z,18.80
2018-06-07T06:50:07.924Z,18.91
2018-06-07T06:51:07.932Z,18.95
2018-06-07T06:52:07.932Z,18.92
2018-06-07T06:53:07.938Z,18.95
2018-06-07T06:54:07.940Z,19.21
2018-06-07T06:55:07.951Z,19.47
2018-06-07T06:56:07.953Z,19.91
2018-06-07T06:57:08.002Z,20.69
2018-06-07T06:58:07.958Z,21.57
2018-06-07T06:59:07.962Z,22.20
2018-06-07T07:00:07.966Z,21.67
2018-06-07T07:01:07.971Z,21.38
2018-06-07T07:02:07.977Z,21.06
2018-06-07T07:03:07.984Z,20.87
2018-06-07T07:04:07.986Z,20.81
2018-06-07T07:05:07.989Z,20.62
2018-06-07T07:06:07.995Z,21.02
2018-06-07T07:07:08.003Z,21.54
2018-06-07T07:08:08.009Z,21.13
2018-06-07T07:09:08.045Z,21.16
2018-06-07T07:10:08.016Z,21.92
2018-06-07T07:11:08.025Z,22.52
2018-06-07T07:12:08.030Z,22.80
2018-06-07T07:13:08.033Z,23.27
2018-06-07T07:14:08.040Z,23.08
2018-06-07T07:15:08.047Z,22.57
2018-06-07T07:16:08.050Z,22.52
2018-06-07T07:17:08.054Z,22.37
2018-06-07T07:18:08.062Z,22.44
2018-06-07T07:19:08.066Z,22.13
2018-06-07T07:20:08.072Z,22.13
2018-06-07T07:21:08.076Z,22.10
2018-06-07T07:22:08.085Z,22.59
2018-06-07T07:23:08.130Z,22.75
2018-06-07T07:24:08.094Z,22.92
2018-06-07T07:25:08.102Z,22.94
2018-06-07T07:26:08.107Z,22.97
2018-06-07T07:27:08.114Z,23.26
2018-06-07T07:28:08.125Z,23.39
2018-06-07T07:29:08.127Z,23.90
2018-06-07T07:30:08.132Z,24.00
2018-06-07T07:31:08.139Z,24.19
2018-06-07T07:32:08.144Z,24.14
2018-06-07T07:33:08.150Z,24.07
2018-06-07T07:34:08.157Z,23.86
2018-06-07T07:35:08.167Z,24.01
2018-06-07T07:36:08.169Z,24.00
2018-06-07T07:37:08.178Z,24.04
2018-06-07T07:38:08.184Z,24.34
2018-06-07T07:39:08.191Z,24.80
2018-06-07T07:40:08.197Z,24.67
2018-06-07T07:41:08.202Z,25.06
2018-06-07T07:42:08.212Z,24.90
2018-06-07T07:43:08.218Z,24.61
2018-06-07T07:44:08.224Z,24.24
2018-06-07T07:45:08.257Z,24.22
2018-06-07T07:46:08.239Z,24.08
2018-06-07T07:47:08.253Z,24.02
2018-06-07T07:48:08.252Z,24.01
2018-06-07T07:49:08.261Z,24.14
2018-06-07T07:50:08.267Z,24.38
2018-06-07T07:51:08.278Z,24.54
2018-06-07T07:52:08.289Z,24.47
2018-06-07T07:53:08.293Z,24.45
2018-06-07T07:54:08.297Z,24.26
2018-06-07T07:55:08.319Z,24.24
2018-06-07T07:56:08.311Z,24.19
2018-06-07T07:57:08.321Z,24.19
2018-06-07T07:58:08.334Z,24.13
2018-06-07T07:59:08.336Z,23.97
2018-06-07T08:00:08.340Z,23.53
2018-06-07T08:01:08.359Z,23.46
2018-06-07T08:02:08.358Z,23.23
2018-06-07T08:03:08.385Z,23.23
2018-06-07T08:04:08.371Z,23.26
2018-06-07T08:05:08.380Z,23.43
2018-06-07T08:06:08.386Z,23.53
2018-06-07T08:07:08.395Z,23.72
2018-06-07T08:08:08.399Z,23.70
2018-06-07T08:09:08.408Z,23.87
2018-06-07T08:10:08.416Z,24.12
2018-06-07T08:11:08.423Z,24.23
2018-06-07T08:12:08.434Z,24.49
2018-06-07T08:13:08.436Z,24.75
2018-06-07T08:14:08.458Z,24.90
2018-06-07T08:15:08.452Z,25.01
2018-06-07T08:16:08.457Z,25.17
2018-06-07T08:17:08.464Z,25.24
2018-06-07T08:18:08.474Z,25.39
2018-06-07T08:19:08.490Z,25.50
2018-06-07T08:20:08.489Z,25.59
2018-06-07T08:21:08.501Z,25.77
2018-06-07T08:22:08.507Z,25.99
2018-06-07T08:23:08.518Z,26.18
2018-06-07T08:24:08.525Z,26.09
2018-06-07T08:25:08.532Z,26.05
2018-06-07T08:26:08.541Z,26.22
2018-06-07T08:27:08.551Z,26.35
2018-06-07T08:28:08.560Z,26.29
2018-06-07T08:29:08.566Z,26.49
2018-06-07T08:30:08.581Z,26.46
2018-06-07T08:31:08.589Z,26.55
2018-06-07T08:32:08.620Z,26.40
2018-06-07T08:33:08.609Z,26.46
2018-06-07T08:34:08.617Z,26.57
2018-06-07T08:35:08.630Z,26.57
2018-06-07T08:36:08.639Z,26.54
2018-06-07T08:37:08.649Z,26.76
2018-06-07T08:38:08.657Z,26.98
2018-06-07T08:39:08.669Z,26.94
2018-06-07T08:40:08.678Z,26.91
2018-06-07T08:41:08.697Z,26.99
2018-06-07T08:42:08.699Z,27.14
2018-06-07T08:43:08.718Z,27.20
2018-06-07T08:44:08.722Z,27.17
2018-06-07T08:45:08.732Z,27.09
2018-06-07T08:46:08.743Z,27.05
2018-06-07T08:47:08.767Z,26.95
2018-06-07T08:48:08.762Z,26.84
2018-06-07T08:49:08.776Z,26.79
2018-06-07T08:50:08.798Z,26.79
2018-06-07T08:51:08.822Z,26.89
2018-06-07T08:52:08.818Z,27.21
2018-06-07T08:53:08.816Z,27.36
2018-06-07T08:54:08.828Z,27.43
2018-06-07T08:55:08.841Z,27.43
2018-06-07T08:56:08.849Z,27.48
2018-06-07T08:57:08.861Z,27.64
2018-06-07T08:58:08.869Z,27.71
2018-06-07T08:59:08.895Z,27.88
2018-06-07T09:00:08.985Z,27.89
2018-06-07T09:01:08.924Z,28.09
2018-06-07T09:02:08.939Z,28.19
2018-06-07T09:03:08.926Z,28.36
2018-06-07T09:04:08.933Z,28.44
2018-06-07T09:05:08.952Z,28.47
2018-06-07T09:06:08.955Z,28.68
2018-06-07T09:07:09.008Z,28.35
2018-06-07T09:08:08.977Z,27.94
2018-06-07T09:09:08.987Z,27.89
2018-06-07T09:10:08.999Z,27.73
2018-06-07T09:11:09.011Z,27.79
2018-06-07T09:12:09.021Z,27.89
2018-06-07T09:13:09.030Z,28.17
2018-06-07T09:14:09.042Z,28.28
2018-06-07T09:15:09.053Z,28.26
2018-06-07T09:16:09.063Z,28.21
2018-06-07T09:17:09.074Z,28.26
2018-06-07T09:18:09.086Z,28.56
2018-06-07T09:19:09.096Z,28.80
2018-06-07T09:20:09.106Z,28.91
2018-06-07T09:21:09.118Z,29.20
2018-06-07T09:22:09.131Z,29.26
2018-06-07T09:23:09.137Z,29.26
2018-06-07T09:24:09.148Z,29.29
2018-06-07T09:25:09.161Z,29.15
2018-06-07T09:26:09.174Z,29.10
2018-06-07T09:27:09.202Z,29.20
2018-06-07T09:28:09.193Z,28.72
2018-06-07T09:29:09.205Z,28.40
2018-06-07T09:30:09.213Z,28.51
2018-06-07T09:31:09.235Z,28.66
2018-06-07T09:32:09.236Z,28.88
2018-06-07T09:33:09.258Z,28.82
2018-06-07T09:34:09.253Z,28.97
2018-06-07T09:35:09.264Z,28.66
2018-06-07T09:36:09.287Z,28.87
2018-06-07T09:37:09.285Z,29.01
2018-06-07T09:38:09.298Z,29.23
2018-06-07T09:39:09.306Z,29.01
2018-06-07T09:40:09.325Z,29.00
2018-06-07T09:41:09.335Z,28.32
2018-06-07T09:42:09.343Z,28.04
2018-06-07T09:43:09.347Z,27.69
2018-06-07T09:44:09.355Z,28.10
2018-06-07T09:45:09.364Z,28.38
2018-06-07T09:46:09.380Z,28.58
2018-06-07T09:47:09.388Z,28.85
2018-06-07T09:48:09.395Z,28.93
2018-06-07T09:49:09.404Z,28.82
2018-06-07T09:50:09.414Z,28.81
2018-06-07T09:51:09.426Z,28.23
2018-06-07T09:52:09.437Z,28.11
2018-06-07T09:53:09.442Z,27.92
2018-06-07T09:54:09.475Z,27.82
2018-06-07T09:55:09.464Z,27.91
2018-06-07T09:56:09.471Z,27.96
2018-06-07T09:57:09.482Z,27.94
2018-06-07T09:58:09.521Z,27.89
2018-06-07T09:59:09.501Z,27.73
2018-06-07T10:00:09.580Z,27.48
2018-06-07T10:01:09.542Z,27.54
2018-06-07T10:02:09.530Z,27.73
2018-06-07T10:03:09.551Z,27.69
2018-06-07T10:04:09.555Z,27.77
2018-06-07T10:05:09.556Z,27.92
2018-06-07T10:06:09.570Z,27.85
2018-06-07T10:07:09.574Z,28.09
2018-06-07T10:08:09.592Z,28.47
2018-06-07T10:09:09.597Z,28.88
2018-06-07T10:10:09.605Z,29.04
2018-06-07T10:11:09.613Z,29.15
2018-06-07T10:12:09.621Z,29.20
2018-06-07T10:13:09.635Z,29.19
2018-06-07T10:14:09.639Z,29.26
2018-06-07T10:15:09.649Z,29.50
2018-06-07T10:16:09.709Z,29.49
2018-06-07T10:17:09.669Z,29.66
2018-06-07T10:18:09.679Z,29.90
2018-06-07T10:19:09.715Z,30.15
2018-06-07T10:20:09.694Z,30.47
2018-06-07T10:21:09.708Z,30.40
2018-06-07T10:22:09.717Z,30.65
2018-06-07T10:23:09.727Z,30.38
2018-06-07T10:24:09.738Z,30.56
2018-06-07T10:25:09.747Z,30.54
2018-06-07T10:26:09.757Z,30.16
2018-06-07T10:27:09.763Z,29.84
2018-06-07T10:28:09.774Z,29.72
2018-06-07T10:29:09.843Z,29.55
2018-06-07T10:30:09.792Z,29.29
2018-06-07T10:31:09.809Z,29.22
2018-06-07T10:32:09.815Z,28.97
2018-06-07T10:33:09.823Z,28.77
2018-06-07T10:34:09.831Z,28.54
2018-06-07T10:35:09.840Z,28.35
2018-06-07T10:36:09.850Z,28.06
2018-06-07T10:37:09.860Z,27.71
2018-06-07T10:38:09.876Z,27.69
2018-06-07T10:39:09.882Z,27.32
2018-06-07T10:40:09.889Z,27.02
2018-06-07T10:41:09.900Z,26.84
2018-06-07T10:42:09.906Z,26.68
2018-06-07T10:43:09.925Z,26.55
2018-06-07T10:44:09.925Z,26.17
2018-06-07T10:45:09.940Z,26.25
2018-06-07T10:46:09.943Z,26.24
2018-06-07T10:47:09.952Z,26.22
2018-06-07T10:48:09.959Z,26.27
2018-06-07T10:49:09.968Z,26.55
2018-06-07T10:50:09.993Z,26.65
2018-06-07T10:51:09.986Z,27.01
2018-06-07T10:52:10.040Z,27.11
2018-06-07T10:53:10.001Z,27.26
2018-06-07T10:54:10.010Z,27.05
2018-06-07T10:55:10.036Z,27.02
2018-06-07T10:56:10.025Z,26.84
2018-06-07T10:57:10.036Z,26.73
2018-06-07T10:58:10.041Z,26.36
2018-06-07T10:59:10.051Z,26.12
2018-06-07T11:00:10.061Z,25.67
2018-06-07T11:01:10.081Z,25.46
2018-06-07T11:02:10.092Z,25.34
2018-06-07T11:03:10.086Z,25.20
2018-06-07T11:04:10.088Z,25.10
2018-06-07T11:05:10.107Z,25.02
2018-06-07T11:06:10.111Z,24.80
2018-06-07T11:07:10.113Z,24.47
2018-06-07T11:08:10.120Z,24.34
2018-06-07T11:09:10.127Z,24.20
2018-06-07T11:10:10.134Z,24.23
2018-06-07T11:11:10.145Z,24.24
2018-06-07T11:12:10.151Z,24.16
2018-06-07T11:13:10.170Z,24.19
2018-06-07T11:14:10.175Z,24.01
2018-06-07T11:15:10.172Z,23.90
2018-06-07T11:16:10.177Z,23.79
2018-06-07T11:17:10.189Z,23.40
2018-06-07T11:18:10.192Z,22.72
2018-06-07T11:19:10.200Z,22.31
2018-06-07T11:20:10.205Z,21.98
2018-06-07T11:21:10.226Z,21.82
2018-06-07T11:22:10.222Z,21.71
2018-06-07T11:23:10.230Z,21.38
2018-06-07T11:24:10.233Z,21.41
2018-06-07T11:25:10.239Z,21.39
2018-06-07T11:26:10.248Z,21.17
2018-06-07T11:27:10.252Z,21.04
2018-06-07T11:28:10.257Z,20.80
2018-06-07T11:29:10.266Z,20.51
2018-06-07T11:30:10.269Z,20.27
2018-06-07T11:31:10.276Z,20.03
2018-06-07T11:32:10.281Z,19.95
2018-06-07T11:33:10.286Z,19.72
2018-06-07T11:34:10.294Z,19.58
2018-06-07T11:35:10.300Z,19.58
2018-06-07T11:36:10.303Z,19.55
2018-06-07T11:37:10.309Z,19.48
2018-06-07T11:38:10.322Z,19.53
2018-06-07T11:39:10.320Z,19.54
2018-06-07T11:40:10.326Z,19.43
2018-06-07T11:41:10.334Z,19.39
2018-06-07T11:42:10.336Z,19.43
2018-06-07T11:43:10.342Z,19.33
2018-06-07T11:44:10.350Z,19.31
2018-06-07T11:45:10.355Z,19.35
2018-06-07T11:46:10.360Z,19.35
2018-06-07T11:47:10.371Z,19.46
2018-06-07T11:48:10.371Z,19.47
2018-06-07T11:49:10.372Z,19.50
2018-06-07T11:50:10.384Z,19.38
2018-06-07T11:51:10.382Z,19.32
2018-06-07T11:52:10.389Z,19.23
2018-06-07T11:53:10.403Z,19.08
2018-06-07T11:54:10.398Z,19.05
2018-06-07T11:55:10.403Z,19.02
2018-06-07T11:56:10.406Z,18.99
2018-06-07T11:57:10.419Z,19.02
2018-06-07T11:58:10.418Z,19.17
2018-06-07T11:59:10.421Z,19.18
2018-06-07T12:00:10.426Z,19.35
2018-06-07T12:01:10.431Z,19.39
2018-06-07T12:02:10.435Z,19.48
2018-06-07T12:03:10.443Z,19.31
2018-06-07T12:04:10.446Z,19.47
2018-06-07T12:05:10.451Z,19.58
2018-06-07T12:06:10.454Z,19.75
2018-06-07T12:07:10.463Z,19.88
2018-06-07T12:08:10.473Z,20.06
2018-06-07T12:09:10.470Z,19.98
2018-06-07T12:10:10.549Z,20.13
2018-06-07T12:11:11.555Z,20.18
2018-06-07T12:12:10.485Z,20.24
2018-06-07T12:13:10.491Z,20.21
2018-06-07T12:14:10.495Z,20.25
2018-06-07T12:15:10.591Z,20.28
2018-06-07T12:16:11.305Z,20.35
2018-06-07T12:17:10.512Z,20.46
2018-06-07T12:18:10.523Z,20.59
2018-06-07T12:19:10.522Z,20.46
2018-06-07T12:20:10.525Z,20.62
2018-06-07T12:21:10.530Z,20.59
2018-06-07T12:22:10.537Z,20.62
2018-06-07T12:23:10.540Z,20.71
2018-06-07T12:24:10.545Z,20.66
2018-06-07T12:25:10.923Z,20.62
2018-06-07T12:26:10.557Z,20.69
2018-06-07T12:27:10.569Z,20.65
2018-06-07T12:28:10.563Z,20.51
2018-06-07T12:29:10.572Z,20.50
2018-06-07T12:30:10.577Z,20.50
2018-06-07T12:31:10.582Z,20.56
2018-06-07T12:32:10.622Z,20.42
2018-06-07T12:33:10.591Z,20.39
2018-06-07T12:34:10.599Z,20.54
2018-06-07T12:35:10.604Z,20.54
2018-06-07T12:36:10.608Z,20.47
2018-06-07T12:37:10.619Z,20.50
2018-06-07T12:38:10.619Z,20.58
2018-06-07T12:39:10.625Z,20.61
2018-06-07T12:40:10.709Z,20.61
2018-06-07T12:41:10.637Z,20.56
2018-06-07T12:42:10.640Z,20.65
2018-06-07T12:43:10.648Z,20.69
2018-06-07T12:44:10.651Z,20.65
2018-06-07T12:45:10.656Z,20.64
2018-06-07T12:46:10.661Z,20.65
2018-06-07T12:47:10.667Z,20.69
2018-06-07T12:48:10.669Z,20.74
2018-06-07T12:49:10.680Z,20.84
2018-06-07T12:50:10.689Z,20.84
2018-06-07T12:51:10.688Z,20.79
2018-06-07T12:52:10.696Z,20.90